Time;durP1;ratioP1;P1;durP2;ratioP2;P2;SDS_P1;SDS_P2;PMS_P1;PMS_P2;Temp;Humidity;BMP_temperature;BMP_pressure;BME280_temperature;BME280_humidity;BME280_pressure;Samples;Min_cycle;Max_cycle;Signal;HPM_P1;HPM_P2
2022/04/08 00:00:52;;;;;;;10.85;7.97;;;9.00;1.00;;;9.65;89.69;96497.97;5021489;28;119583;-63
2022/04/08 00:03:20;;;;;;;15.13;8.02;;;9.00;1.00;;;9.68;89.03;96495.28;5021545;28;119874;-63
2022/04/08 00:05:50;;;;;;;11.52;7.88;;;9.20;1.00;;;9.76;88.79;96492.63;5019531;28;130784;-63
2022/04/08 00:08:19;;;;;;;11.98;7.82;;;9.30;1.00;;;9.76;88.08;96487.22;5020979;28;130103;-65
2022/04/08 00:10:47;;;;;;;14.50;8.45;;;9.30;1.00;;;9.80;88.02;96498.81;5021648;28;120181;-64
2022/04/08 00:13:17;;;;;;;11.90;8.50;;;9.30;1.00;;;9.91;86.53;96488.84;5006400;28;119226;-64
2022/04/08 00:15:47;;;;;;;11.20;7.88;;;9.30;1.00;;;9.93;86.00;96483.81;5005996;28;129608;-64
2022/04/08 00:18:15;;;;;;;13.40;8.90;;;9.30;1.00;;;9.91;85.94;96480.72;5020757;28;129396;-63
2022/04/08 00:20:44;;;;;;;13.10;8.63;;;9.40;1.00;;;9.95;85.55;96467.94;5005764;28;118362;-63
2022/04/08 00:23:13;;;;;;;12.07;8.30;;;9.30;1.00;;;9.96;85.17;96463.31;5021463;28;119638;-64
2022/04/08 00:25:41;;;;;;;12.45;9.45;;;9.20;1.00;;;9.87;85.09;96463.66;5020642;28;130597;-65
2022/04/08 00:28:09;;;;;;;15.05;12.13;;;9.20;1.00;;;9.87;84.57;96461.72;5020823;28;130096;-65
2022/04/08 00:30:38;;;;;;;16.92;11.35;;;9.20;1.00;;;9.79;84.84;96449.31;5020073;28;122264;-65
2022/04/08 00:33:08;;;;;;;14.57;10.73;;;9.10;1.00;;;9.75;84.56;96447.72;5021265;28;122107;-65
2022/04/08 00:35:37;;;;;;;12.57;8.77;;;9.10;1.00;;;9.66;84.62;96450.78;5020757;28;131038;-64
2022/04/08 00:38:06;;;;;;;12.63;8.75;;;9.00;1.00;;;9.66;84.22;96446.16;5020538;28;130560;-65
2022/04/08 00:40:34;;;;;;;13.88;8.55;;;9.00;1.00;;;9.70;83.61;96452.34;5004206;28;119832;-64
2022/04/08 00:43:14;;;;;;;11.10;8.55;;;8.90;1.00;;;9.52;84.38;96435.25;5020817;28;119518;-64
2022/04/08 00:45:43;;;;;;;13.80;8.57;;;8.90;1.00;;;9.53;83.90;96436.78;5019126;27;130064;-65
2022/04/08 00:48:13;;;;;;;13.10;8.15;;;8.90;1.00;;;9.47;84.16;96441.03;5020616;28;129494;-65
2022/04/08 00:50:45;;;;;;;12.55;9.05;;;8.90;1.00;;;9.41;84.35;96423.59;5020931;28;119668;-66
2022/04/08 00:53:13;;;;;;;11.25;8.43;;;8.80;1.00;;;9.40;83.85;96427.47;5020399;28;119172;-65
2022/04/08 00:55:42;;;;;;;11.95;8.50;;;8.80;1.00;;;9.35;83.91;96421.25;5019182;28;130119;-64
2022/04/08 00:58:11;;;;;;;11.57;8.82;;;8.80;1.00;;;9.41;83.38;96424.38;5019826;28;129594;-65
2022/04/08 01:00:42;;;;;;;13.43;9.10;;;8.80;1.00;;;9.28;84.15;96418.50;5020569;28;119623;-63
2022/04/08 01:03:12;;;;;;;13.70;9.73;;;8.80;1.00;;;9.24;83.73;96404.19;5020566;28;119393;-64
2022/04/08 01:05:41;;;;;;;12.73;9.40;;;8.70;1.00;;;9.18;84.05;96400.28;5019985;28;130113;-66
2022/04/08 01:08:14;;;;;;;11.88;9.05;;;8.70;1.00;;;9.21;83.69;96396.03;5019922;28;129487;-64
2022/04/08 01:10:43;;;;;;;14.73;9.90;;;8.70;1.00;;;9.06;84.30;96403.28;5020472;28;120428;-64
2022/04/08 01:13:12;;;;;;;17.63;11.15;;;8.60;1.00;;;9.05;84.54;96396.31;5019198;28;119461;-66
2022/04/08 01:15:41;;;;;;;14.07;9.80;;;8.50;1.00;;;8.99;84.37;96393.97;5002000;28;129899;-66
2022/04/08 01:18:10;;;;;;;14.27;9.82;;;8.50;1.00;;;9.02;84.20;96381.59;5020194;28;129816;-66
2022/04/08 01:20:40;;;;;;;13.48;9.55;;;8.50;1.00;;;8.97;84.10;96385.44;5020214;28;122045;-65
2022/04/08 01:23:08;;;;;;;12.00;9.50;;;8.50;1.00;;;8.96;84.01;96386.63;5005395;28;120266;-65
2022/04/08 01:25:38;;;;;;;14.25;10.52;;;8.50;1.00;;;8.91;84.42;96389.69;5019673;28;129694;-65
2022/04/08 01:28:07;;;;;;;15.20;10.45;;;8.40;1.00;;;8.90;84.09;96390.81;5019505;28;129602;-64
2022/04/08 01:30:36;;;;;;;15.30;10.98;;;8.50;1.00;;;8.91;83.90;96386.19;5020115;28;119582;-64
2022/04/08 01:33:04;;;;;;;13.10;10.25;;;8.50;1.00;;;8.83;84.32;96379.94;5020111;28;119377;-64
2022/04/08 01:35:34;;;;;;;15.93;10.07;;;8.60;1.00;;;8.97;83.38;96384.69;5004809;28;129547;-63
2022/04/08 01:38:02;;;;;;;15.07;9.60;;;8.60;1.00;;;8.97;82.95;96374.63;5018553;28;129644;-64
2022/04/08 01:40:30;;;;;;;14.27;10.13;;;8.50;1.00;;;8.94;83.10;96372.69;5020114;28;119712;-64
2022/04/08 01:43:00;;;;;;;15.32;9.93;;;8.50;1.00;;;8.93;82.97;96368.44;5018953;28;120111;-64
2022/04/08 01:45:29;;;;;;;14.75;9.85;;;8.50;1.00;;;8.94;83.19;96364.59;5018230;28;130492;-65
2022/04/08 01:47:57;;;;;;;14.95;9.48;;;8.50;1.00;;;8.95;82.77;96368.81;5019177;28;129781;-65
2022/04/08 01:50:26;;;;;;;14.55;9.82;;;8.50;1.00;;;8.94;83.04;96353.78;5020064;28;119540;-64
2022/04/08 01:52:54;;;;;;;14.43;9.77;;;8.40;1.00;;;8.97;82.61;96357.63;5019472;28;119547;-64
2022/04/08 01:55:23;;;;;;;13.65;9.70;;;8.50;1.00;;;8.97;82.60;96358.41;5019050;28;130700;-64
2022/04/08 01:57:51;;;;;;;15.73;10.57;;;8.50;1.00;;;8.98;82.38;96359.97;5019059;28;129908;-64
2022/04/08 02:00:21;;;;;;;13.98;9.95;;;8.60;1.00;;;9.04;82.04;96356.88;5019511;28;119885;-65
2022/04/08 02:02:50;;;;;;;12.25;9.25;;;8.60;1.00;;;9.12;81.55;96366.63;5001600;28;119563;-64
2022/04/08 02:05:18;;;;;;;13.57;9.52;;;8.60;1.00;;;9.22;81.00;96359.69;5019360;28;129791;-64
2022/04/08 02:07:46;;;;;;;15.55;9.88;;;8.60;1.00;;;9.24;80.76;96358.19;5004174;28;128510;-64
2022/04/08 02:10:15;;;;;;;12.93;9.68;;;8.70;1.00;;;9.28;80.84;96364.38;5018029;28;122401;-64
2022/04/08 02:12:44;;;;;;;13.25;8.45;;;8.70;1.00;;;9.27;80.57;96368.25;5019283;28;121821;-65
2022/04/08 02:15:13;;;;;;;14.27;9.18;;;8.80;1.00;;;9.25;80.68;96353.53;5019070;28;129791;-62
2022/04/08 02:17:43;;;;;;;13.90;9.23;;;8.80;1.00;;;9.37;79.80;96355.16;5018940;28;129439;-64
2022/04/08 02:20:12;;;;;;;12.80;8.98;;;8.90;1.00;;;9.48;79.15;96347.84;5020072;28;120233;-65
2022/04/08 02:22:41;;;;;;;12.88;8.70;;;8.90;1.00;;;9.38;79.50;96343.16;5019185;28;119386;-64
2022/04/08 02:25:11;;;;;;;13.32;9.20;;;8.90;1.00;;;9.38;79.46;96343.16;5019009;28;130020;-64
2022/04/08 02:27:40;;;;;;;11.45;8.63;;;9.00;1.00;;;9.35;79.41;96334.66;5019252;28;129613;-64
2022/04/08 02:30:12;;;;;;;13.23;8.52;;;9.00;1.00;;;9.37;79.46;96341.63;5018873;28;119736;-65
2022/04/08 02:32:42;;;;;;;11.40;8.90;;;9.00;1.00;;;9.39;78.69;96329.25;5019230;28;119595;-65
2022/04/08 02:35:11;;;;;;;13.98;8.80;;;9.00;1.00;;;9.35;79.34;96329.22;5002857;28;129740;-64
2022/04/08 02:37:40;;;;;;;14.85;8.13;;;9.00;1.00;;;9.40;78.65;96319.97;5003761;28;128876;-64
2022/04/08 02:40:10;;;;;;;13.60;8.82;;;9.00;1.00;;;9.41;78.29;96323.44;5018907;28;119490;-64
2022/04/08 02:42:39;;;;;;;10.43;8.43;;;8.90;1.00;;;9.25;79.20;96327.25;5018743;28;119630;-64
2022/04/08 02:45:09;;;;;;;12.05;7.72;;;8.80;1.00;;;9.15;79.35;96315.22;5018328;28;130476;-64
2022/04/08 02:47:43;;;;;;;12.95;8.05;;;8.80;1.00;;;9.17;79.31;96318.31;5018018;28;129594;-65
2022/04/08 02:50:13;;;;;;;13.20;8.15;;;8.80;1.00;;;9.11;79.50;96298.19;5018591;28;119661;-65
2022/04/08 02:52:41;;;;;;;12.35;8.00;;;8.80;1.00;;;9.15;79.92;96307.09;5019249;28;119336;-64
2022/04/08 02:55:10;;;;;;;11.75;8.35;;;8.70;1.00;;;9.17;79.63;96306.72;5018372;28;129764;-64
2022/04/08 02:57:45;;;;;;;13.88;8.20;;;8.70;1.00;;;9.10;80.03;96301.28;5003346;28;128848;-64
2022/04/08 03:00:16;;;;;;;11.80;8.07;;;8.80;1.00;;;9.17;79.64;96304.03;5019261;28;122413;-65
2022/04/08 03:02:46;;;;;;;12.02;8.52;;;8.80;1.00;;;9.19;79.78;96288.19;5018614;28;122239;-65
2022/04/08 03:05:16;;;;;;;10.95;7.50;;;8.80;1.00;;;9.29;79.23;96292.09;5018231;28;130383;-65
2022/04/08 03:07:45;;;;;;;11.82;8.02;;;8.90;1.00;;;9.26;79.64;96299.03;5000285;28;129294;-64
2022/04/08 03:10:14;;;;;;;11.73;8.18;;;8.90;1.00;;;9.30;79.62;96299.84;5022114;28;121070;-66
2022/04/08 03:12:43;;;;;;;13.43;7.82;;;9.00;1.00;;;9.48;78.73;96304.53;5004541;28;119752;-65
2022/04/08 03:15:11;;;;;;;13.18;8.43;;;9.00;1.00;;;9.47;79.18;96308.38;5021975;28;130437;-65
2022/04/08 03:17:40;;;;;;;14.32;8.18;;;9.00;1.00;;;9.40;80.04;96298.31;5021081;28;129331;-67
2022/04/08 03:20:11;;;;;;;11.65;8.50;;;9.10;1.00;;;9.40;80.43;96294.84;5023056;28;119610;-66
2022/04/08 03:22:40;;;;;;;12.50;8.43;;;9.00;1.00;;;9.44;79.96;96303.75;5022330;28;119328;-66
2022/04/08 03:25:09;;;;;;;12.10;8.07;;;9.00;1.00;;;9.38;80.39;96289.03;5020528;28;131005;-66
2022/04/08 03:27:37;;;;;;;12.95;8.25;;;9.00;1.00;;;9.40;80.51;96297.56;5023465;28;129293;-66
2022/04/08 03:30:07;;;;;;;11.93;7.82;;;9.00;1.00;;;9.39;80.70;96285.16;5003882;28;119689;-64
2022/04/08 03:32:36;;;;;;;12.15;8.07;;;9.00;1.00;;;9.34;81.12;96289.78;5003819;28;119768;-65
2022/04/08 03:35:05;;;;;;;12.80;8.00;;;9.00;1.00;;;9.41;80.74;96289.06;5021528;28;129867;-65
2022/04/08 03:37:35;;;;;;;13.00;8.00;;;9.00;1.00;;;9.42;80.93;96284.41;5021380;28;129934;-64
2022/04/08 03:40:05;;;;;;;14.32;8.93;;;9.00;1.00;;;9.42;81.89;96279.00;5022017;28;119766;-63
2022/04/08 03:42:34;;;;;;;12.40;8.48;;;9.00;1.00;;;9.35;82.24;96291.34;5007444;28;119713;-64
2022/04/08 03:45:02;;;;;;;12.00;8.68;;;8.90;1.00;;;9.44;81.49;96293.72;5021595;28;129907;-65
2022/04/08 03:47:31;;;;;;;12.82;8.75;;;8.90;1.00;;;9.43;81.93;96288.69;5006139;28;129054;-63
2022/04/08 03:49:59;;;;;;;11.93;9.02;;;8.90;1.00;;;9.35;82.13;96285.16;5019219;28;123301;-64
2022/04/08 03:52:32;;;;;;;11.45;8.15;;;8.90;1.00;;;9.35;82.14;96296.00;5022146;28;122879;-65
2022/04/08 03:55:03;;;;;;;11.70;8.07;;;8.90;1.00;;;9.32;82.16;96296.75;5021588;28;130741;-65
2022/04/08 03:57:31;;;;;;;11.73;8.32;;;9.00;1.00;;;9.39;82.11;96293.28;5021097;28;129465;-65
2022/04/08 04:00:00;;;;;;;16.00;8.70;;;9.00;1.00;;;9.51;81.23;96292.94;5021550;28;121043;-64
2022/04/08 04:02:28;;;;;;;12.88;8.02;;;9.00;1.00;;;9.54;81.09;96292.19;5034716;27;119313;-66
2022/04/08 04:04:59;;;;;;;12.10;7.78;;;9.00;1.00;;;9.41;82.73;96299.09;5039768;27;130878;-65
2022/04/08 04:07:27;;;;;;;12.30;8.40;;;9.00;1.00;;;9.24;85.46;96298.66;5041340;27;129505;-63
2022/04/08 04:09:59;;;;;;;14.45;9.50;;;8.90;1.00;;;9.17;87.59;96295.91;5041609;27;119551;-62
2022/04/08 04:12:28;;;;;;;14.18;8.75;;;8.80;1.00;;;9.20;88.33;96300.56;5041494;27;120231;-64
2022/04/08 04:14:57;;;;;;;12.60;8.75;;;8.70;1.00;;;9.12;89.30;96299.00;5038832;27;130857;-63
2022/04/08 04:17:28;;;;;;;13.27;9.30;;;8.70;1.00;;;9.04;90.74;96295.47;5026079;27;128938;-63
2022/04/08 04:19:56;;;;;;;16.60;9.68;;;8.60;1.00;;;9.12;90.84;96299.75;5041664;27;120556;-64
2022/04/08 04:22:25;;;;;;;14.02;9.32;;;8.60;1.00;;;9.04;91.77;96302.78;5041476;27;119536;-64
2022/04/08 04:24:53;;;;;;;15.93;10.23;;;8.50;1.00;;;8.93;93.17;96303.53;5039956;27;129784;-65
2022/04/08 04:27:22;;;;;;;16.65;10.43;;;8.50;1.00;;;8.92;93.90;96306.63;5026007;27;129182;-65
2022/04/08 04:29:52;;;;;;;12.43;9.43;;;8.40;1.00;;;8.78;94.73;96313.47;5041475;27;120786;-63
2022/04/08 04:32:20;;;;;;;15.48;10.15;;;8.30;1.00;;;8.87;94.51;96307.75;5041516;27;120010;-63
2022/04/08 04:34:49;;;;;;;15.95;9.90;;;8.30;1.00;;;8.83;94.86;96323.16;5041157;27;130092;-64
2022/04/08 04:37:19;;;;;;;15.43;9.98;;;8.30;1.00;;;8.75;95.48;96325.03;5040986;27;129587;-64
2022/04/08 04:39:47;;;;;;;18.35;11.23;;;8.20;1.00;;;8.71;96.15;96329.66;5042620;27;123458;-63
2022/04/08 04:42:15;;;;;;;16.10;10.93;;;8.20;1.00;;;8.59;97.48;96336.16;5041074;27;121882;-64
2022/04/08 04:44:44;;;;;;;18.13;10.55;;;8.10;1.00;;;8.44;98.47;96331.78;5025986;27;130087;-64
2022/04/08 04:47:13;;;;;;;15.07;10.55;;;8.10;1.00;;;8.34;99.36;96332.47;5040642;27;129440;-64
2022/04/08 04:49:42;;;;;;;15.52;10.50;;;8.00;1.00;;;8.33;99.52;96337.06;5041152;27;120089;-64
2022/04/08 04:52:11;;;;;;;15.40;11.20;;;8.00;1.00;;;8.50;99.06;96335.69;5040878;27;120065;-63
2022/04/08 04:54:40;;;;;;;19.60;11.70;;;8.00;1.00;;;8.28;100.00;96342.81;5039308;27;129897;-64
2022/04/08 04:57:10;;;;;;;17.35;11.23;;;8.00;1.00;;;8.43;100.00;96346.41;5040772;27;129440;-65
2022/04/08 04:59:38;;;;;;;16.88;11.48;;;8.00;1.00;;;8.36;100.00;96343.66;5041078;27;120159;-62
2022/04/08 05:02:06;;;;;;;15.02;10.82;;;8.00;1.30;;;8.51;100.00;96364.28;5041093;27;119127;-63
2022/04/08 05:04:37;;;;;;;16.38;10.73;;;7.90;5.10;;;8.27;100.00;96366.38;5024454;27;130108;-62
2022/04/08 05:07:05;;;;;;;16.17;10.93;;;7.90;9.90;;;8.39;100.00;96375.34;5025430;27;128773;-64
2022/04/08 05:09:34;;;;;;;17.42;11.80;;;7.90;15.30;;;8.45;100.00;96377.34;5040832;27;119949;-63
2022/04/08 05:12:02;;;;;;;17.05;11.20;;;7.90;22.40;;;8.40;100.00;96368.78;5025732;27;118973;-62
2022/04/08 05:14:31;;;;;;;18.77;10.93;;;7.90;27.40;;;8.40;100.00;96382.31;5040441;27;130476;-66
2022/04/08 05:16:59;;;;;;;15.13;10.65;;;7.90;28.80;;;8.46;100.00;96388.91;5040342;27;129615;-63
2022/04/08 05:19:28;;;;;;;13.32;9.98;;;8.00;29.00;;;8.40;100.00;96395.81;5024995;27;118723;-63
2022/04/08 05:21:58;;;;;;;16.80;10.73;;;8.00;34.60;;;8.45;100.00;96403.59;5041098;27;119855;-64
2022/04/08 05:24:26;;;;;;;13.13;9.65;;;7.90;37.80;;;8.47;100.00;96405.94;5040226;27;129920;-68
2022/04/08 05:26:55;;;;;;;17.55;8.00;;;7.90;44.90;;;8.51;100.00;96402.13;5039871;27;129706;-65
2022/04/08 05:29:24;;;;;;;8.45;4.78;;;7.90;35.90;;;8.37;98.82;96407.38;5039012;27;122273;-63
2022/04/08 05:31:52;;;;;;;7.03;4.32;;;7.80;5.50;;;8.31;98.84;96403.44;5024196;27;120784;-63
2022/04/08 05:34:21;;;;;;;8.38;4.13;;;7.80;1.00;;;8.44;97.02;96391.22;5040091;27;130112;-64
2022/04/08 05:36:49;;;;;;;7.30;3.97;;;7.80;1.00;;;8.48;95.53;96385.84;5039780;27;129641;-63
2022/04/08 05:39:19;;;;;;;6.80;3.40;;;7.80;1.00;;;8.52;94.55;96386.66;5040351;27;120438;-64
2022/04/08 05:41:48;;;;;;;12.07;4.80;;;7.80;1.00;;;8.58;94.54;96390.56;5025227;27;118339;-63
2022/04/08 05:44:16;;;;;;;10.30;4.57;;;7.80;1.00;;;8.70;92.75;96403.03;5039784;27;129854;-65
2022/04/08 05:46:45;;;;;;;12.30;3.58;;;7.90;1.00;;;8.73;92.48;96405.00;5042682;27;130604;-64
2022/04/08 05:49:13;;;;;;;9.25;4.15;;;7.90;1.00;;;8.86;91.87;96400.81;5039933;27;119552;-65
2022/04/08 05:51:42;;;;;;;5.10;3.00;;;8.00;1.00;;;8.89;89.58;96394.66;5015447;27;119384;-68
2022/04/08 05:54:10;;;;;;;7.95;3.38;;;7.90;1.00;;;8.99;89.49;96387.78;5028279;27;129901;-67
2022/04/08 05:56:40;;;;;;;4.25;2.47;;;8.00;1.00;;;9.20;88.50;96403.38;5039377;27;131589;-66
2022/04/08 05:59:09;;;;;;;6.15;3.67;;;8.10;1.00;;;9.20;88.94;96414.19;5039806;27;120405;-68
2022/04/08 06:01:37;;;;;;;6.82;3.75;;;8.10;1.00;;;9.12;88.86;96412.59;5039767;27;119766;-64
2022/04/08 06:04:06;;;;;;;11.38;3.90;;;8.10;1.00;;;8.99;89.15;96418.31;5024614;27;129824;-67
2022/04/08 06:06:38;;;;;;;8.35;2.80;;;7.90;1.00;;;8.71;90.56;96415.38;5039541;27;130714;-66
2022/04/08 06:09:07;;;;;;;6.05;2.40;;;7.80;1.00;;;8.76;89.87;96401.53;5039525;27;119668;-63
2022/04/08 06:11:35;;;;;;;5.68;2.50;;;7.80;1.00;;;8.74;89.39;96410.03;5040190;27;119831;-65
2022/04/08 06:14:06;;;;;;;10.18;3.03;;;7.80;1.00;;;8.85;89.30;96398.50;5039165;27;130750;-66
2022/04/08 06:16:35;;;;;;;7.20;3.58;;;7.90;1.00;;;9.03;89.28;96385.13;5038682;27;130004;-67
2022/04/08 06:19:03;;;;;;;9.77;3.85;;;8.00;1.00;;;9.07;90.18;96394.00;5037889;27;122066;-66
2022/04/08 06:21:31;;;;;;;7.75;3.90;;;8.00;1.00;;;9.15;91.03;96418.03;5041646;27;121864;-67
2022/04/08 06:24:00;;;;;;;8.43;4.00;;;8.00;1.00;;;9.19;90.74;96412.63;5038938;27;130526;-67
2022/04/08 06:26:28;;;;;;;9.35;3.60;;;8.00;1.00;;;9.23;89.66;96408.03;5038991;27;129602;-66
2022/04/08 06:28:58;;;;;;;8.95;3.88;;;8.00;1.00;;;9.45;89.38;96416.28;5038963;27;119658;-67
2022/04/08 06:31:29;;;;;;;10.95;3.40;;;8.20;1.00;;;9.60;88.28;96444.97;5040889;27;118850;-68
2022/04/08 06:33:59;;;;;;;11.32;3.67;;;8.30;1.00;;;9.73;88.13;96460.88;5023815;27;129792;-67
2022/04/08 06:36:29;;;;;;;11.48;3.65;;;8.50;1.00;;;10.10;86.15;96457.16;5023690;27;128517;-67
2022/04/08 06:38:58;;;;;;;9.25;3.17;;;8.70;1.00;;;10.33;84.20;96470.41;5038599;27;119636;-68
2022/04/08 06:41:26;;;;;;;8.15;3.22;;;8.80;1.00;;;10.75;83.23;96469.72;5041951;27;119189;-67
2022/04/08 06:43:54;;;;;;;5.00;2.60;;;9.10;1.00;;;10.88;79.97;96472.06;5022468;27;129059;-68
2022/04/08 06:46:23;;;;;;;5.63;2.47;;;9.10;1.00;;;11.21;79.20;96461.97;5038858;27;130630;-67
2022/04/08 06:48:54;;;;;;;4.47;2.15;;;9.40;1.00;;;11.48;77.17;96460.38;5038938;27;120040;-67
2022/04/08 06:51:22;;;;;;;4.97;2.28;;;9.50;1.00;;;11.44;74.46;96465.03;5041746;27;121246;-64
2022/04/08 06:53:51;;;;;;;5.40;2.17;;;9.40;1.00;;;11.71;74.89;96463.81;5020395;27;130298;-69
2022/04/08 06:56:20;;;;;;;6.15;2.45;;;9.70;1.00;;;11.39;75.94;96462.72;5038480;27;129581;-67
2022/04/08 06:58:50;;;;;;;5.18;2.60;;;9.60;1.00;;;11.36;76.12;96468.94;5020764;27;119993;-67
2022/04/08 07:01:18;;;;;;;10.13;3.33;;;9.50;1.00;;;11.58;76.17;96472.38;5041290;27;119158;-65
2022/04/08 07:03:47;;;;;;;7.53;2.60;;;9.60;1.00;;;11.69;75.28;96469.63;5038176;27;129924;-67
2022/04/08 07:06:17;;;;;;;8.45;3.33;;;9.70;1.00;;;11.90;73.69;96484.31;5038347;27;129698;-67
2022/04/08 07:08:45;;;;;;;10.75;3.78;;;9.70;1.00;;;12.04;73.27;96487.00;5033497;27;121924;-69
2022/04/08 07:11:14;;;;;;;8.88;2.75;;;9.80;1.00;;;12.06;74.14;96487.41;5018189;27;121854;-66
2022/04/08 07:13:42;;;;;;;7.15;2.90;;;9.90;1.00;;;11.95;75.53;96492.88;5018247;28;130029;-66
2022/04/08 07:16:11;;;;;;;6.55;2.80;;;9.90;1.00;;;12.21;74.75;96494.31;5018119;28;130120;-65
2022/04/08 07:18:39;;;;;;;6.65;2.75;;;10.10;1.00;;;12.44;73.41;96490.31;5018309;28;120261;-67
2022/04/08 07:21:09;;;;;;;5.20;2.70;;;10.20;1.00;;;12.39;73.36;96496.19;5020358;28;119959;-66
2022/04/08 07:23:39;;;;;;;3.85;2.30;;;10.10;1.00;;;12.49;72.45;96492.63;5017738;28;129935;-69
2022/04/08 07:26:07;;;;;;;6.50;2.67;;;10.30;1.00;;;12.70;72.29;96493.66;5017984;28;129271;-67
2022/04/08 07:28:36;;;;;;;5.57;2.90;;;10.40;1.00;;;12.74;71.52;96484.28;5018569;28;119877;-68
2022/04/08 07:31:05;;;;;;;4.00;2.22;;;10.30;1.00;;;12.87;70.64;96481.91;5019084;27;119379;-67
2022/04/08 07:33:33;;;;;;;4.40;2.65;;;10.50;1.00;;;12.85;70.78;96480.75;5017062;28;131229;-65
2022/04/08 07:36:03;;;;;;;4.28;2.45;;;10.50;1.00;;;12.87;70.40;96479.19;5017619;28;129569;-68
2022/04/08 07:38:32;;;;;;;4.63;2.42;;;10.40;1.00;;;12.65;71.11;96483.19;5017979;28;119339;-67
2022/04/08 07:41:02;;;;;;;5.72;2.63;;;10.40;1.00;;;12.72;72.12;96477.72;5017552;28;119572;-68
2022/04/08 07:43:30;;;;;;;5.13;3.05;;;10.50;1.00;;;12.87;70.74;96472.94;5017888;28;130364;-67
2022/04/08 07:45:59;;;;;;;3.92;2.20;;;10.50;1.00;;;12.88;70.29;96475.25;5017525;28;129272;-65
2022/04/08 07:48:27;;;;;;;3.78;2.25;;;10.60;1.00;;;12.79;71.03;96483.09;5018033;28;119597;-67
2022/04/08 07:50:56;;;;;;;5.15;2.47;;;10.70;1.00;;;12.68;70.89;96482.41;5018180;28;120240;-67
2022/04/08 07:53:24;;;;;;;4.55;2.70;;;10.50;1.00;;;12.43;71.71;96469.72;5017610;27;129452;-66
2022/04/08 07:55:53;;;;;;;7.72;2.83;;;10.50;1.00;;;12.60;70.80;96476.22;5023432;28;130537;-70
2022/04/08 07:58:23;;;;;;;6.80;2.90;;;10.60;1.00;;;12.75;71.09;96480.41;5020037;28;122268;-68
2022/04/08 08:00:54;;;;;;;6.55;2.25;;;10.70;1.00;;;12.87;70.65;96478.38;5021032;28;122047;-67
2022/04/08 08:03:23;;;;;;;5.35;2.78;;;10.60;1.00;;;12.65;70.73;96480.47;5021094;28;130199;-67
2022/04/08 08:05:53;;;;;;;4.53;2.47;;;10.70;1.00;;;12.44;70.92;96495.75;5005166;28;128214;-67
2022/04/08 08:08:21;;;;;;;5.45;2.70;;;10.30;1.00;;;12.24;72.61;96498.19;5006126;28;118519;-68
2022/04/08 08:10:50;;;;;;;7.28;3.20;;;10.40;1.00;;;12.18;73.23;96500.53;5021186;28;119474;-67
2022/04/08 08:13:18;;;;;;;8.85;3.50;;;10.30;1.00;;;12.25;72.97;96498.94;5005921;28;129400;-67
2022/04/08 08:15:48;;;;;;;5.95;3.00;;;10.30;1.00;;;11.93;72.90;96499.88;5006191;27;129139;-67
2022/04/08 08:18:17;;;;;;;6.40;3.25;;;10.10;1.00;;;12.30;72.66;96495.84;5031573;27;120685;-69
2022/04/08 08:20:47;;;;;;;6.60;3.08;;;10.20;1.00;;;12.35;72.13;96492.69;5022309;28;119882;-69
2022/04/08 08:23:15;;;;;;;6.28;2.80;;;10.30;1.00;;;12.57;71.54;96505.03;5004474;28;129448;-68
2022/04/08 08:25:45;;;;;;;7.20;3.70;;;10.50;1.00;;;12.34;72.68;96500.09;5020610;28;129569;-66
2022/04/08 08:28:14;;;;;;;7.22;3.15;;;10.50;1.00;;;11.75;74.65;96497.16;5021139;28;119823;-66
2022/04/08 08:30:44;;;;;;;6.75;3.38;;;10.30;1.00;;;12.00;73.45;96511.47;5020712;28;120191;-67
2022/04/08 08:33:14;;;;;;;6.72;3.33;;;10.20;1.00;;;12.35;72.97;96509.00;5005415;28;129698;-69
2022/04/08 08:35:44;;;;;;;8.52;3.78;;;10.50;1.00;;;12.69;71.79;96511.16;5020810;28;130061;-68
2022/04/08 08:38:13;;;;;;;4.78;3.22;;;10.70;1.00;;;13.30;69.48;96497.09;5020897;28;119436;-67
2022/04/08 08:40:45;;;;;;;11.00;3.83;;;11.10;1.00;;;13.42;68.56;96514.94;5006204;28;120051;-67
2022/04/08 08:43:18;;;;;;;8.32;3.53;;;11.30;1.00;;;13.60;67.38;96501.94;5020631;28;129850;-67
2022/04/08 08:45:48;;;;;;;5.57;3.05;;;11.40;1.00;;;13.37;66.71;96504.47;5018613;28;129626;-67
2022/04/08 08:48:19;;;;;;;5.72;3.30;;;10.90;1.00;;;13.81;66.72;96505.59;5004910;28;121744;-68
2022/04/08 08:50:50;;;;;;;6.20;3.03;;;11.40;1.00;;;13.94;65.11;96503.88;5020749;28;121958;-68
2022/04/08 08:53:20;;;;;;;9.05;4.20;;;11.60;1.00;;;13.76;65.64;96515.00;5020139;28;129732;-65
2022/04/08 08:55:49;;;;;;;9.20;3.83;;;11.40;1.00;;;13.17;67.51;96518.63;5020410;28;130024;-70
2022/04/08 08:58:18;;;;;;;11.05;3.90;;;11.10;1.00;;;12.89;70.32;96509.47;5005516;28;118398;-65
2022/04/08 09:00:47;;;;;;;8.43;3.60;;;10.90;1.00;;;13.00;67.94;96512.13;5005500;28;118903;-68
2022/04/08 09:03:18;;;;;;;8.55;3.50;;;10.80;1.00;;;12.98;68.63;96516.41;5020027;28;130027;-65
2022/04/08 09:05:52;;;;;;;8.52;3.30;;;10.90;1.00;;;13.20;68.70;96520.53;5017797;28;129718;-68
2022/04/08 09:08:20;;;;;;;8.90;3.40;;;11.10;1.00;;;13.19;67.21;96518.97;5039286;27;121632;-66
2022/04/08 09:10:49;;;;;;;5.18;3.20;;;11.20;1.00;;;13.55;65.70;96531.56;5000839;28;118695;-68
2022/04/08 09:13:20;;;;;;;5.70;3.00;;;11.30;1.00;;;13.90;64.99;96518.75;5018410;28;130217;-69
2022/04/08 09:15:57;;;;;;;6.05;3.30;;;11.60;1.00;;;13.61;64.92;96524.50;5047055;27;129397;-70
2022/04/08 09:18:30;;;;;;;8.63;3.85;;;11.40;1.00;;;13.90;63.98;96513.28;5058033;27;119574;-67
2022/04/08 09:20:59;;;;;;;8.27;3.78;;;11.60;1.00;;;13.97;64.37;96516.72;5042296;27;121117;-67
2022/04/08 09:23:28;;;;;;;6.45;3.40;;;11.60;1.00;;;13.94;64.28;96508.56;5021863;27;129803;-67
2022/04/08 09:26:01;;;;;;;7.13;3.75;;;11.60;1.00;;;13.49;65.49;96509.41;5040214;27;130485;-71
2022/04/08 09:28:36;;;;;;;8.52;3.75;;;11.10;1.00;;;13.26;66.25;96509.97;5033920;27;102653;-68
2022/04/08 09:31:05;;;;;;;6.68;4.35;;;11.20;1.00;;;13.56;64.47;96506.63;5022449;27;119427;-67
2022/04/08 09:33:36;;;;;;;5.90;3.53;;;11.30;1.00;;;13.56;64.89;96516.75;5025078;27;128904;-68
2022/04/08 09:36:05;;;;;;;7.22;3.63;;;11.40;1.00;;;13.21;65.99;96524.03;5039774;27;129394;-70
2022/04/08 09:38:34;;;;;;;7.28;4.03;;;11.30;1.00;;;13.59;64.57;96535.78;5039055;27;122331;-67
2022/04/08 09:41:06;;;;;;;6.53;4.20;;;11.40;1.00;;;13.66;63.55;96543.91;5039900;27;122046;-69
2022/04/08 09:43:38;;;;;;;5.57;3.38;;;11.60;1.00;;;13.75;63.82;96545.38;5039864;27;129948;-70
2022/04/08 09:46:17;;;;;;;7.00;3.38;;;11.60;1.00;;;14.15;61.68;96551.19;5021244;27;129611;-70
2022/04/08 09:48:48;;;;;;;9.38;3.75;;;11.80;1.00;;;14.34;61.08;96553.31;5039870;27;119729;-68
2022/04/08 09:51:20;;;;;;;6.15;3.80;;;11.90;1.00;;;13.83;62.58;96546.84;5039301;27;119761;-68
2022/04/08 09:53:58;;;;;;;9.18;3.83;;;11.70;1.00;;;13.43;64.73;96557.31;5024257;27;128788;-69
2022/04/08 09:56:28;;;;;;;7.63;3.72;;;11.60;1.00;;;13.29;64.83;96547.28;5042911;27;130173;-68
2022/04/08 09:59:05;;;;;;;7.82;3.55;;;11.40;1.00;;;13.46;63.90;96540.19;5039631;27;119404;-68
2022/04/08 10:01:35;;;;;;;;;;;11.60;1.00;;;13.66;62.84;96549.38;5039247;27;119688;-68
2022/04/08 10:04:07;;;;;;;7.43;4.13;;;11.80;1.00;;;12.91;65.28;96534.34;5038638;27;130076;-69
2022/04/08 10:06:36;;;;;;;7.05;4.18;;;11.30;1.00;;;12.92;65.91;96537.84;5039244;27;129806;-68
2022/04/08 10:09:08;;;;;;;6.85;4.20;;;11.30;1.00;;;12.58;67.40;96541.91;5024745;27;118851;-68
2022/04/08 10:11:58;;;;;;;8.15;4.60;;;11.10;1.00;;;12.32;67.81;96553.31;5040016;27;119202;-70
2022/04/08 10:14:38;;;;;;;11.45;4.72;;;10.70;1.00;;;12.13;68.68;96551.81;5039196;27;130048;-70
2022/04/08 10:17:08;;;;;;;7.75;5.28;;;10.60;1.00;;;11.72;70.40;96555.78;5037999;27;129632;-68
2022/04/08 10:19:38;;;;;;;10.15;4.68;;;10.40;1.00;;;11.03;72.29;96587.59;5039528;27;120058;-67
2022/04/08 10:22:17;;;;;;;6.90;2.50;;;10.00;1.00;;;9.46;78.41;96612.72;5042004;27;118492;-69
2022/04/08 10:24:53;;;;;;;11.93;2.60;;;7.50;1.00;;;7.37;88.74;96607.44;5038949;27;129924;-72
2022/04/08 10:27:30;;;;;;;;;;;5.70;1.00;;;6.75;92.92;96600.22;5039501;27;129305;-71
2022/04/08 10:29:59;;;;;;;3.47;2.05;;;5.20;1.00;;;7.39;93.51;96567.41;5021472;27;122665;-69
2022/04/08 10:32:39;;;;;;;5.15;2.10;;;5.60;6.40;;;8.69;88.89;96580.69;5007894;28;121919;-69